Time;durP1;ratioP1;P1;durP2;ratioP2;P2;SDS_P1;SDS_P2;PMS_P1;PMS_P2;Temp;Humidity;BMP_temperature;BMP_pressure;BME280_temperature;BME280_humidity;BME280_pressure;Samples;Min_cycle;Max_cycle;Signal;HPM_P1;HPM_P2
2021/12/01 00:02:05;;;;;;;1.70;1.27;;;;;;;9.97;77.67;100155.94;5106070;28;20044;-68
2021/12/01 00:04:33;;;;;;;1.95;1.52;;;;;;;10.00;77.63;100155.47;5097234;28;20048;-68
2021/12/01 00:07:00;;;;;;;2.63;1.45;;;;;;;10.01;77.18;100150.94;5098749;28;20060;-68
2021/12/01 00:09:28;;;;;;;1.67;1.27;;;;;;;10.02;77.59;100139.13;5102693;28;20082;-67
2021/12/01 00:11:56;;;;;;;2.10;1.15;;;;;;;10.01;77.42;100127.59;5098481;28;20052;-67
2021/12/01 00:14:25;;;;;;;1.83;0.90;;;;;;;10.01;77.31;100129.47;5095870;28;20043;-67
2021/12/01 00:16:53;;;;;;;1.95;1.35;;;;;;;10.00;78.07;100106.34;5105990;28;20052;-68
2021/12/01 00:19:21;;;;;;;1.70;1.00;;;;;;;10.01;77.49;100107.97;5101260;28;20120;-68
2021/12/01 00:21:48;;;;;;;1.85;1.30;;;;;;;10.03;77.43;100105.88;5088394;28;20044;-67
2021/12/01 00:24:16;;;;;;;1.42;1.30;;;;;;;10.02;77.69;100088.94;5102484;28;20071;-67
2021/12/01 00:26:44;;;;;;;1.55;1.00;;;;;;;9.98;77.41;100066.31;5101965;28;20056;-67
2021/12/01 00:29:12;;;;;;;2.50;1.00;;;;;;;10.02;77.59;100062.09;5097243;28;20070;-67
2021/12/01 00:31:41;;;;;;;1.15;1.00;;;;;;;10.02;77.87;100064.78;5104449;28;20535;-67
2021/12/01 00:34:09;;;;;;;1.42;1.13;;;;;;;10.02;77.57;100058.59;5105688;28;20067;-67
2021/12/01 00:36:37;;;;;;;1.65;1.30;;;;;;;10.01;77.85;100055.09;5105781;28;20067;-67
2021/12/01 00:39:05;;;;;;;1.33;1.23;;;;;;;10.02;77.60;100042.50;5103874;28;20077;-67
2021/12/01 00:41:33;;;;;;;1.42;1.10;;;;;;;9.97;77.84;100027.09;5104917;28;20044;-67
2021/12/01 00:44:01;;;;;;;1.05;0.80;;;;;;;10.00;77.98;100028.50;5105172;28;20063;-68
2021/12/01 00:46:39;;;;;;;1.13;1.00;;;;;;;10.00;78.21;100025.81;5100833;28;20131;-67
2021/12/01 00:49:09;;;;;;;1.00;0.90;;;;;;;10.00;77.66;100018.59;5087681;28;20082;-68
2021/12/01 00:51:36;;;;;;;1.05;0.95;;;;;;;10.01;77.14;100020.22;5100450;28;20048;-68
2021/12/01 00:54:04;;;;;;;0.85;0.80;;;;;;;10.01;77.09;100005.97;5095402;28;20048;-67
2021/12/01 00:56:32;;;;;;;0.73;0.70;;;;;;;10.03;77.34;100009.22;5088252;28;20505;-67
2021/12/01 00:59:00;;;;;;;1.88;1.20;;;;;;;10.03;77.36;100010.06;5101554;28;20067;-67
2021/12/01 01:01:28;;;;;;;1.25;0.93;;;;;;;10.03;77.33;100004.69;5099994;28;20191;-68
2021/12/01 01:03:56;;;;;;;1.25;0.90;;;;;;;10.02;77.78;99995.00;5101106;28;20044;-67
2021/12/01 01:06:25;;;;;;;0.85;0.80;;;;;;;10.04;77.48;99992.06;5098889;28;20072;-67
2021/12/01 01:08:53;;;;;;;3.03;1.08;;;;;;;10.02;77.14;99976.22;5104560;28;20062;-67
2021/12/01 01:16:52;;;;;;;2.47;1.13;;;;;;;10.03;76.88;99960.91;5104852;28;20044;-68
2021/12/01 01:19:20;;;;;;;1.40;1.23;;;;;;;10.01;76.97;99958.47;5110587;28;20091;-67
2021/12/01 01:21:51;;;;;;;4.38;1.20;;;;;;;10.02;77.07;99960.09;5090415;28;20063;-68
2021/12/01 01:24:20;;;;;;;1.73;1.17;;;;;;;10.03;77.58;99966.28;5101850;28;20056;-68
2021/12/01 01:26:48;;;;;;;4.70;1.90;;;;;;;10.03;77.38;99955.53;5104456;28;20059;-68
2021/12/01 01:29:20;;;;;;;3.10;1.80;;;;;;;10.04;77.06;99943.75;5103640;28;20051;-68
2021/12/01 01:31:50;;;;;;;2.17;1.23;;;;;;;10.03;77.22;99934.88;5100915;28;20040;-68
2021/12/01 01:34:18;;;;;;;2.35;1.30;;;;;;;10.08;77.25;99931.47;5097755;28;20051;-67
2021/12/01 01:36:46;;;;;;;1.75;1.50;;;;;;;10.04;77.06;99927.66;5101162;28;20118;-68
2021/12/01 01:39:15;;;;;;;1.77;1.30;;;;;;;10.04;77.36;99931.16;5096063;28;20409;-68
2021/12/01 01:41:43;;;;;;;2.67;1.05;;;;;;;10.08;76.90;99934.97;5101235;28;20048;-67
2021/12/01 01:44:11;;;;;;;2.25;1.50;;;;;;;10.05;77.21;99911.31;5103703;28;20055;-67
2021/12/01 01:46:40;;;;;;;3.78;1.23;;;;;;;9.99;77.40;99920.31;5101045;28;20531;-68
2021/12/01 01:49:11;;;;;;;2.22;1.50;;;;;;;10.04;77.61;99915.03;5103941;28;20047;-67
2021/12/01 01:51:40;;;;;;;3.40;1.48;;;;;;;10.04;77.49;99915.03;5100844;28;20040;-67
2021/12/01 01:54:09;;;;;;;2.03;1.10;;;;;;;10.05;77.32;99899.75;5105591;28;20136;-67
2021/12/01 01:56:39;;;;;;;2.65;1.50;;;;;;;10.04;76.81;99900.81;5095001;28;20056;-68
2021/12/01 01:59:07;;;;;;;1.40;1.20;;;;;;;10.02;77.39;99884.94;5089502;28;20067;-68
2021/12/01 02:04:20;;;;;;;2.67;1.20;;;;;;;10.04;76.75;99880.13;5101089;28;20469;-68
2021/12/01 02:06:49;;;;;;;1.92;1.38;;;;;;;10.00;77.39;99875.50;5101164;28;20048;-68
2021/12/01 02:09:19;;;;;;;1.48;1.30;;;;;;;10.04;76.91;99876.66;5085971;28;20051;-67
2021/12/01 02:11:49;;;;;;;4.07;1.30;;;;;;;10.05;77.06;99873.72;5096218;28;20074;-67
2021/12/01 02:14:17;;;;;;;1.80;1.20;;;;;;;10.05;76.58;99872.91;5096019;28;20039;-67
2021/12/01 02:16:45;;;;;;;2.08;1.17;;;;;;;10.04;76.60;99860.53;5097630;28;20079;-67
2021/12/01 02:19:13;;;;;;;2.42;1.48;;;;;;;10.04;76.63;99857.84;5102791;28;20354;-68
2021/12/01 02:21:42;;;;;;;1.60;1.33;;;;;;;10.02;76.73;99854.59;5084943;28;20044;-68
2021/12/01 02:24:12;;;;;;;1.27;1.17;;;;;;;10.01;77.36;99837.69;5102861;28;20135;-67
2021/12/01 02:26:44;;;;;;;1.80;1.20;;;;;;;10.03;76.65;99840.13;5103927;28;20051;-67
2021/12/01 02:29:13;;;;;;;2.28;1.45;;;;;;;10.02;76.81;99839.31;5102651;28;20052;-68
2021/12/01 02:31:43;;;;;;;3.25;1.35;;;;;;;10.01;76.55;99826.13;5092965;28;20045;-68
2021/12/01 02:34:14;;;;;;;1.90;1.35;;;;;;;10.01;76.73;99826.13;5090393;28;20044;-68
2021/12/01 02:36:46;;;;;;;1.25;1.15;;;;;;;10.02;76.78;99806.28;5100266;28;20048;-67
2021/12/01 02:39:16;;;;;;;3.05;1.58;;;;;;;10.03;76.30;99813.28;5100291;28;20067;-68
2021/12/01 02:41:45;;;;;;;1.85;1.48;;;;;;;10.03;76.56;99789.94;5095505;28;20044;-67
2021/12/01 02:44:16;;;;;;;1.55;1.25;;;;;;;10.02;75.98;99787.50;5100693;28;20048;-68
2021/12/01 02:46:45;;;;;;;3.38;1.45;;;;;;;10.01;76.46;99780.50;5101268;28;20069;-67
2021/12/01 02:49:13;;;;;;;1.73;1.38;;;;;;;9.98;76.42;99762.19;5102865;28;20048;-68
2021/12/01 02:51:41;;;;;;;1.92;1.60;;;;;;;10.00;76.56;99773.50;5105727;28;20075;-67
2021/12/01 02:54:10;;;;;;;2.15;1.58;;;;;;;9.99;76.06;99763.81;5105305;28;20051;-68
2021/12/01 02:56:37;;;;;;;1.92;1.55;;;;;;;9.99;76.26;99777.25;5092528;28;20051;-67
2021/12/01 02:59:06;;;;;;;1.50;1.40;;;;;;;10.01;76.55;99765.19;5091923;28;20134;-68
2021/12/01 03:01:34;;;;;;;2.35;1.33;;;;;;;9.98;76.22;99746.09;5088812;28;20059;-67
2021/12/01 03:04:02;;;;;;;2.15;1.50;;;;;;;10.00;76.32;99738.59;5104396;28;20048;-68
2021/12/01 03:06:33;;;;;;;1.00;0.95;;;;;;;9.99;76.55;99726.25;5103580;28;20110;-67
2021/12/01 03:09:01;;;;;;;2.70;1.38;;;;;;;9.98;76.09;99732.66;5107230;28;20055;-68
2021/12/01 03:11:31;;;;;;;6.65;1.25;;;;;;;9.96;75.89;99716.00;5108815;28;20075;-68
2021/12/01 03:13:58;;;;;;;3.38;1.55;;;;;;;9.96;76.21;99716.81;5106811;28;20486;-68
2021/12/01 03:16:26;;;;;;;2.25;1.60;;;;;;;9.95;76.50;99709.00;5107220;28;20048;-68
2021/12/01 03:18:54;;;;;;;2.50;1.55;;;;;;;9.96;76.08;99714.13;5103188;28;20497;-68
2021/12/01 03:21:22;;;;;;;1.90;1.30;;;;;;;10.00;75.91;99696.47;5097458;28;20036;-68
2021/12/01 03:23:49;;;;;;;1.75;1.65;;;;;;;9.91;76.19;99686.41;5090008;28;20052;-67
2021/12/01 03:26:17;;;;;;;1.85;1.38;;;;;;;9.99;75.86;99707.44;5099485;28;20098;-68
2021/12/01 03:28:46;;;;;;;2.03;1.45;;;;;;;9.98;75.72;99692.41;5106577;28;20059;-68
2021/12/01 03:31:14;;;;;;;2.80;1.73;;;;;;;9.98;75.89;99695.09;5099308;28;20075;-67
2021/12/01 03:33:43;;;;;;;3.67;1.70;;;;;;;9.97;76.13;99677.38;5091273;28;20042;-67
2021/12/01 03:36:10;;;;;;;1.35;1.23;;;;;;;9.97;75.85;99680.03;5104028;28;20086;-67
2021/12/01 03:38:38;;;;;;;2.30;1.50;;;;;;;9.98;76.15;99679.00;5104484;28;20044;-67
2021/12/01 03:41:06;;;;;;;2.28;1.70;;;;;;;9.94;76.21;99680.53;5104762;28;20059;-67
2021/12/01 03:43:34;;;;;;;3.65;1.73;;;;;;;9.93;76.06;99652.06;5095597;28;20101;-67
2021/12/01 03:46:03;;;;;;;2.33;1.58;;;;;;;9.94;76.16;99664.44;5106596;28;20055;-68
2021/12/01 03:48:31;;;;;;;4.05;1.70;;;;;;;9.97;75.98;99648.66;5099345;28;20130;-67
2021/12/01 03:50:59;;;;;;;4.30;1.83;;;;;;;9.94;75.50;99643.78;5104901;28;20082;-68
2021/12/01 03:53:27;;;;;;;3.55;1.60;;;;;;;10.01;75.43;99632.88;5099557;28;20093;-68
2021/12/01 03:55:55;;;;;;;3.58;1.88;;;;;;;9.98;75.83;99623.44;5101813;28;20060;-68
2021/12/01 03:58:23;;;;;;;2.20;1.52;;;;;;;9.92;75.38;99611.00;5102461;28;20040;-68
2021/12/01 04:00:50;;;;;;;2.22;1.55;;;;;;;9.94;75.45;99605.41;5097087;28;20050;-68
2021/12/01 04:03:20;;;;;;;2.22;1.67;;;;;;;9.92;75.49;99586.84;5105425;28;20040;-67
2021/12/01 04:05:47;;;;;;;3.58;1.40;;;;;;;9.90;75.68;99582.78;5104779;28;20366;-67
2021/12/01 04:08:15;;;;;;;3.13;1.50;;;;;;;9.90;75.60;99569.38;5105408;28;20055;-68
2021/12/01 04:10:43;;;;;;;3.55;2.05;;;;;;;9.87;75.39;99559.13;5102439;28;20071;-67
2021/12/01 04:13:11;;;;;;;2.72;1.50;;;;;;;9.87;75.84;99551.91;5102751;28;20067;-67
2021/12/01 04:15:40;;;;;;;3.45;1.98;;;;;;;9.86;75.11;99547.59;5102279;28;20070;-68
2021/12/01 04:18:07;;;;;;;2.35;1.40;;;;;;;9.88;76.09;99552.72;5105926;28;20082;-67
2021/12/01 04:20:37;;;;;;;2.80;1.52;;;;;;;9.85;75.38;99548.66;5105378;28;20358;-67
2021/12/01 04:23:05;;;;;;;2.42;1.73;;;;;;;9.86;76.04;99544.09;5105810;28;20044;-67
2021/12/01 04:25:33;;;;;;;3.22;1.70;;;;;;;9.84;75.64;99544.34;5102508;28;20079;-68
2021/12/01 04:28:01;;;;;;;3.17;1.30;;;;;;;9.83;75.47;99541.91;5093744;28;20058;-68
2021/12/01 04:30:28;;;;;;;3.60;1.52;;;;;;;9.83;76.11;99532.00;5101886;28;20056;-68
2021/12/01 04:32:57;;;;;;;4.63;2.47;;;;;;;9.81;75.83;99525.25;5101927;28;20040;-67
2021/12/01 04:35:27;;;;;;;2.65;1.65;;;;;;;9.81;75.34;99509.97;5105120;28;20147;-67
2021/12/01 04:37:57;;;;;;;3.20;1.60;;;;;;;9.82;75.67;99513.47;5105553;28;20040;-67
2021/12/01 04:40:25;;;;;;;2.58;1.80;;;;;;;9.78;75.81;99492.50;5100589;28;20076;-67
2021/12/01 04:42:54;;;;;;;1.77;1.38;;;;;;;9.82;75.17;99487.44;5101602;28;20044;-67
2021/12/01 04:45:22;;;;;;;2.40;1.80;;;;;;;9.82;75.82;99482.06;5101161;28;20497;-67
2021/12/01 04:47:53;;;;;;;2.03;1.20;;;;;;;9.86;75.08;99466.28;5094505;28;20722;-67
2021/12/01 04:50:23;;;;;;;1.40;1.10;;;;;;;9.84;75.36;99458.47;5096817;28;20079;-67
2021/12/01 04:52:54;;;;;;;2.25;1.38;;;;;;;9.82;75.38;99446.38;5105455;28;20075;-67
2021/12/01 04:55:23;;;;;;;1.63;1.30;;;;;;;9.84;75.24;99428.16;5105302;28;20349;-68
2021/12/01 04:57:51;;;;;;;2.20;1.55;;;;;;;9.84;75.25;99431.66;5099324;28;20071;-67
2021/12/01 05:00:26;;;;;;;2.75;1.52;;;;;;;9.85;75.43;99440.50;5093648;28;20048;-68
2021/12/01 05:02:55;;;;;;;2.47;1.50;;;;;;;9.83;75.15;99430.03;5104947;28;20040;-67
2021/12/01 05:05:30;;;;;;;1.88;1.38;;;;;;;9.83;75.41;99423.84;5089405;28;20053;-67
2021/12/01 05:07:58;;;;;;;2.35;1.40;;;;;;;9.81;75.05;99416.06;5104808;28;20052;-67
2021/12/01 05:10:27;;;;;;;4.72;1.27;;;;;;;9.83;74.97;99413.13;5104692;28;20044;-67
2021/12/01 05:12:55;;;;;;;1.50;1.27;;;;;;;9.82;75.04;99417.69;5103710;28;20048;-67
2021/12/01 05:15:22;;;;;;;1.35;1.13;;;;;;;9.82;75.47;99416.88;5103983;28;20048;-67
2021/12/01 05:17:50;;;;;;;1.58;1.17;;;;;;;9.85;75.18;99408.31;5104636;28;20044;-67
2021/12/01 05:20:18;;;;;;;2.28;1.42;;;;;;;9.82;75.08;99409.63;5094813;28;20040;-68
2021/12/01 05:22:46;;;;;;;1.50;1.35;;;;;;;9.81;75.26;99399.16;5087890;28;20056;-67
2021/12/01 05:25:13;;;;;;;1.13;1.02;;;;;;;9.81;74.88;99399.97;5093898;28;20048;-67
2021/12/01 05:27:42;;;;;;;3.63;1.00;;;;;;;9.80;75.24;99398.34;5101051;28;20451;-67
2021/12/01 05:30:11;;;;;;;2.00;1.33;;;;;;;9.78;75.33;99385.19;5107001;28;20055;-67
2021/12/01 05:32:39;;;;;;;1.70;1.30;;;;;;;9.78;75.20;99393.22;5104911;28;20044;-67
2021/12/01 05:35:08;;;;;;;2.25;1.60;;;;;;;9.76;75.49;99381.94;5104381;28;20048;-67
2021/12/01 05:37:36;;;;;;;3.33;1.67;;;;;;;9.77;75.58;99375.50;5099299;28;20048;-67
2021/12/01 05:40:05;;;;;;;1.73;1.20;;;;;;;9.77;75.53;99367.47;5095653;28;20067;-67
2021/12/01 05:42:32;;;;;;;2.40;1.38;;;;;;;9.83;74.96;99360.25;5097727;28;20044;-67
2021/12/01 05:45:01;;;;;;;2.67;1.50;;;;;;;9.83;75.30;99362.94;5091274;28;20040;-67
2021/12/01 05:47:29;;;;;;;2.88;1.40;;;;;;;9.95;75.38;99349.38;5095446;28;20048;-67
2021/12/01 05:49:57;;;;;;;1.40;1.20;;;;;;;9.88;74.48;99357.63;5103285;28;20044;-67
2021/12/01 05:52:25;;;;;;;1.50;1.20;;;;;;;9.94;74.97;99345.06;5102540;28;20044;-68
2021/12/01 05:54:52;;;;;;;3.33;1.58;;;;;;;9.89;75.02;99321.69;5101237;28;20048;-68
2021/12/01 05:57:20;;;;;;;1.45;1.00;;;;;;;9.88;74.61;99340.72;5088686;28;20126;-67
2021/12/01 05:59:48;;;;;;;2.35;1.50;;;;;;;9.92;74.65;99333.78;5093091;28;20079;-67
2021/12/01 06:02:17;;;;;;;2.10;1.00;;;;;;;9.92;74.53;99309.63;5103744;28;20048;-68
2021/12/01 06:04:45;;;;;;;1.95;1.20;;;;;;;10.10;73.72;99318.13;5092939;28;20045;-69
2021/12/01 06:07:12;;;;;;;2.88;1.67;;;;;;;9.96;74.45;99322.28;5099980;28;20120;-69
2021/12/01 06:09:42;;;;;;;2.15;1.10;;;;;;;9.90;74.57;99320.63;5096215;28;20078;-69
2021/12/01 06:12:12;;;;;;;2.13;1.00;;;;;;;9.88;74.45;99306.66;5101312;28;20043;-68
2021/12/01 06:14:41;;;;;;;1.05;0.95;;;;;;;9.77;74.87;99288.84;5096922;28;20040;-68
2021/12/01 06:17:09;;;;;;;1.00;0.70;;;;;;;9.89;74.43;99289.50;5103126;28;20116;-70
2021/12/01 06:19:38;;;;;;;1.10;0.90;;;;;;;9.85;74.87;99283.00;5103010;28;20473;-70
2021/12/01 06:22:06;;;;;;;1.95;1.00;;;;;;;9.86;74.75;99275.78;5101405;28;20055;-66
2021/12/01 06:24:35;;;;;;;2.13;1.30;;;;;;;9.88;74.43;99268.28;5093829;28;20051;-67
2021/12/01 06:27:04;;;;;;;5.70;0.85;;;;;;;9.91;74.84;99262.41;5102942;28;20055;-66
2021/12/01 06:29:31;;;;;;;0.70;0.70;;;;;;;9.90;74.48;99261.59;4391469;28;10000896;-65
2021/12/01 06:31:59;;;;;;;1.17;0.70;;;;;;;9.88;74.74;99263.72;5098942;28;20048;-65
2021/12/01 06:34:27;;;;;;;1.52;1.05;;;;;;;9.84;74.89;99249.19;5100159;28;20079;-65
2021/12/01 06:36:56;;;;;;;4.03;1.45;;;;;;;9.95;74.62;99244.72;5100106;28;20087;-67
2021/12/01 06:39:24;;;;;;;2.40;1.15;;;;;;;10.06;74.92;99252.59;5100095;28;20340;-65
2021/12/01 06:41:54;;;;;;;0.77;0.65;;;;;;;10.05;74.75;99239.44;5098135;28;20056;-68
2021/12/01 06:44:23;;;;;;;0.88;0.68;;;;;;;9.94;74.51;99237.72;5098736;28;20036;-68
2021/12/01 06:46:51;;;;;;;1.05;0.82;;;;;;;9.95;74.70;99231.31;5093865;28;20049;-68
2021/12/01 06:49:19;;;;;;;0.95;0.75;;;;;;;9.87;74.98;99229.91;5098308;28;20431;-67
2021/12/01 06:51:47;;;;;;;2.00;1.15;;;;;;;9.84;75.32;99241.16;5095875;28;20084;-69
2021/12/01 06:54:16;;;;;;;0.85;0.63;;;;;;;9.81;74.89;99235.47;5099555;28;20044;-69
2021/12/01 06:56:45;;;;;;;0.85;0.82;;;;;;;9.78;75.54;99223.38;5088081;28;20044;-69
2021/12/01 06:59:12;;;;;;;2.03;0.82;;;;;;;9.77;75.48;99227.94;5098784;28;20055;-69
2021/12/01 07:01:40;;;;;;;2.15;0.98;;;;;;;9.81;75.36;99219.38;5098606;28;20623;-69
2021/12/01 07:04:08;;;;;;;2.42;0.60;;;;;;;9.77;75.41;99214.53;5099233;28;20048;-70
2021/12/01 07:06:36;;;;;;;2.95;1.50;;;;;;;9.76;75.33;99207.56;5089510;28;20087;-69
2021/12/01 07:09:04;;;;;;;1.60;0.80;;;;;;;9.72;75.06;99200.28;5092937;28;20078;-68
2021/12/01 07:11:33;;;;;;;0.50;0.50;;;;;;;9.74;75.29;99214.22;5090843;28;20138;-69
2021/12/01 07:14:00;;;;;;;1.77;0.65;;;;;;;9.76;75.68;99209.41;5099429;28;20055;-71
2021/12/01 07:16:30;;;;;;;0.93;0.90;;;;;;;9.75;75.55;99208.63;5086709;28;20632;-70
2021/12/01 07:18:57;;;;;;;0.70;0.70;;;;;;;9.74;75.71;99200.81;5079448;28;20052;-70
2021/12/01 07:21:25;;;;;;;0.65;0.60;;;;;;;9.73;75.56;99183.91;5079142;28;20103;-70
2021/12/01 07:23:53;;;;;;;0.77;0.70;;;;;;;9.72;75.98;99190.34;5091968;28;20082;-70
2021/12/01 07:26:21;;;;;;;1.27;0.50;;;;;;;9.73;75.74;99191.16;5099272;28;20372;-71
2021/12/01 07:28:50;;;;;;;1.20;0.80;;;;;;;9.72;76.25;99189.53;5096181;28;20048;-69
2021/12/01 07:31:18;;;;;;;2.78;1.27;;;;;;;9.73;76.13;99193.84;5086371;28;20067;-70
2021/12/01 07:33:45;;;;;;;1.23;0.70;;;;;;;9.71;75.75;99182.56;5099511;28;20071;-71
2021/12/01 07:36:15;;;;;;;0.80;0.80;;;;;;;9.70;76.03;99189.78;5099548;28;20090;-70
2021/12/01 07:38:43;;;;;;;1.52;0.90;;;;;;;9.72;76.06;99192.22;5100257;28;20052;-69
2021/12/01 07:41:11;;;;;;;0.90;0.70;;;;;;;9.68;76.39;99183.06;5102547;28;20052;-71
2021/12/01 07:43:38;;;;;;;0.70;0.70;;;;;;;9.70;75.96;99181.75;5102757;28;20062;-70
2021/12/01 07:46:07;;;;;;;1.67;0.63;;;;;;;9.70;75.51;99184.44;5103158;28;20165;-70
2021/12/01 07:48:36;;;;;;;1.27;0.70;;;;;;;9.61;75.44;99167.19;5102949;28;20056;-70
2021/12/01 07:51:05;;;;;;;0.90;0.70;;;;;;;9.70;75.98;99192.47;5102354;28;20078;-70
2021/12/01 07:53:33;;;;;;;1.20;0.85;;;;;;;9.71;76.41;99179.88;5094222;28;20056;-70
2021/12/01 07:56:02;;;;;;;0.98;0.73;;;;;;;9.70;76.54;99180.94;5088656;28;20047;-70
2021/12/01 07:58:30;;;;;;;2.92;1.35;;;;;;;9.70;76.54;99192.47;5102238;28;20079;-70
2021/12/01 08:00:58;;;;;;;1.70;1.00;;;;;;;9.70;76.54;99189.00;5103111;28;20466;-70
2021/12/01 08:03:27;;;;;;;2.10;0.95;;;;;;;9.67;75.96;99178.78;5103001;28;20058;-70
2021/12/01 08:05:55;;;;;;;1.15;0.90;;;;;;;9.69;76.39;99173.97;5102030;28;20116;-70
2021/12/01 08:08:23;;;;;;;1.20;0.80;;;;;;;9.69;76.45;99169.41;5102173;28;20044;-68
2021/12/01 08:10:50;;;;;;;1.60;1.02;;;;;;;9.66;75.81;99161.88;5083645;28;20683;-70
2021/12/01 08:13:18;;;;;;;0.95;0.82;;;;;;;9.70;76.84;99167.53;5081169;28;20091;-71
2021/12/01 08:15:49;;;;;;;1.42;1.02;;;;;;;9.74;76.12;99157.91;5082654;28;20054;-71
2021/12/01 08:18:17;;;;;;;1.27;1.10;;;;;;;9.86;75.80;99155.03;5081886;28;20405;-70
2021/12/01 08:20:47;;;;;;;1.10;1.00;;;;;;;10.00;74.78;99153.50;5082014;28;20059;-70
2021/12/01 08:23:14;;;;;;;1.85;0.93;;;;;;;10.01;75.28;99155.94;5093046;28;20047;-70
2021/12/01 08:25:43;;;;;;;2.05;0.90;;;;;;;10.00;75.48;99154.31;5102971;28;20052;-71
2021/12/01 08:28:10;;;;;;;1.00;0.90;;;;;;;10.03;75.38;99147.63;5100608;28;20055;-72
2021/12/01 08:30:39;;;;;;;2.22;1.00;;;;;;;10.13;74.84;99150.38;5100710;28;20090;-68
2021/12/01 08:33:06;;;;;;;1.90;1.08;;;;;;;10.19;74.87;99143.94;5102347;28;20044;-68
2021/12/01 08:35:34;;;;;;;2.30;1.00;;;;;;;10.21;74.80;99143.72;5101974;28;20426;-72
2021/12/01 08:38:04;;;;;;;1.92;0.90;;;;;;;10.24;74.60;99135.94;5101839;28;20076;-71
2021/12/01 08:40:32;;;;;;;0.95;0.88;;;;;;;10.37;73.85;99140.84;5092052;28;20053;-71
2021/12/01 08:42:59;;;;;;;1.73;0.90;;;;;;;10.54;73.54;99140.63;5080812;28;20457;-71
2021/12/01 08:45:27;;;;;;;1.13;0.90;;;;;;;10.67;72.94;99139.31;5081919;28;20055;-71
2021/12/01 08:47:55;;;;;;;2.35;1.10;;;;;;;10.83;71.80;99154.41;5081561;28;20052;-71
2021/12/01 08:50:23;;;;;;;2.75;0.85;;;;;;;10.94;72.08;99144.50;5082256;28;20048;-72
2021/12/01 08:52:51;;;;;;;2.35;0.90;;;;;;;11.00;71.69;99140.75;5098680;28;20051;-71
2021/12/01 08:55:21;;;;;;;1.65;0.90;;;;;;;11.07;70.85;99117.91;5101232;28;20054;-71
2021/12/01 08:58:06;;;;;;;2.00;1.10;;;;;;;11.23;70.18;99117.91;5097329;28;20055;-72
2021/12/01 09:00:40;;;;;;;0.77;0.70;;;;;;;11.34;70.05;99114.97;5100561;28;20044;-71
2021/12/01 09:03:08;;;;;;;1.25;0.80;;;;;;;11.28;70.10;99107.16;5098147;28;20079;-71
2021/12/01 09:05:36;;;;;;;0.73;0.60;;;;;;;11.31;70.16;99102.06;5080494;28;20087;-70
2021/12/01 09:08:04;;;;;;;2.10;0.90;;;;;;;11.33;70.28;99123.31;5093320;28;20056;-71
2021/12/01 09:10:34;;;;;;;1.30;0.73;;;;;;;11.22;70.41;99124.38;5082696;28;20068;-71
2021/12/01 09:13:03;;;;;;;1.50;0.73;;;;;;;11.07;71.05;99128.66;5093727;28;20076;-66
2021/12/01 09:15:31;;;;;;;1.50;0.90;;;;;;;10.90;71.94;99125.41;5081072;28;20060;-69
2021/12/01 09:17:59;;;;;;;0.60;0.60;;;;;;;10.76;72.48;99119.72;5080431;28;20055;-70
2021/12/01 09:20:28;;;;;;;3.05;1.00;;;;;;;10.68;72.97;99116.75;5092563;28;20083;-70
2021/12/01 09:22:56;;;;;;;2.65;0.85;;;;;;;10.59;73.48;99118.34;5097795;28;20056;-70
2021/12/01 09:25:24;;;;;;;3.08;0.70;;;;;;;10.50;73.84;99118.03;5080847;28;20393;-69
2021/12/01 09:28:13;;;;;;;;;;;;;;;10.45;74.13;99115.34;5092071;28;20056;-70
2021/12/01 09:30:41;;;;;;;0.95;0.80;;;;;;;10.41;74.42;99123.09;5089747;28;19924;-70
2021/12/01 09:33:09;;;;;;;0.70;0.65;;;;;;;10.37;74.45;99123.94;5087911;28;20090;-70
2021/12/01 09:35:37;;;;;;;2.03;1.02;;;;;;;10.33;74.38;99118.28;5100659;28;20048;-70
2021/12/01 09:38:05;;;;;;;0.93;0.82;;;;;;;10.29;74.48;99117.19;5092997;28;20056;-70
2021/12/01 09:40:33;;;;;;;1.00;0.73;;;;;;;10.28;74.71;99130.88;5079723;28;20072;-70
2021/12/01 09:43:01;;;;;;;4.53;1.23;;;;;;;10.25;74.95;99134.06;5079819;28;20052;-65
2021/12/01 09:45:30;;;;;;;1.75;0.70;;;;;;;10.20;75.05;99128.69;5080303;28;20080;-73
2021/12/01 09:47:58;;;;;;;0.98;0.73;;;;;;;10.18;74.94;99136.97;5080501;28;20063;-70
2021/12/01 09:50:27;;;;;;;1.65;0.82;;;;;;;10.13;75.41;99136.94;5081956;28;20064;-72
2021/12/01 09:52:55;;;;;;;1.58;0.80;;;;;;;10.13;75.20;99138.81;5093069;28;20079;-71
2021/12/01 09:55:22;;;;;;;1.23;0.80;;;;;;;10.14;75.83;99151.16;5080306;28;20048;-71
2021/12/01 09:57:56;;;;;;;1.75;0.77;;;;;;;10.09;75.69;99141.22;5087607;28;20051;-68
2021/12/01 10:00:24;;;;;;;3.00;1.40;;;;;;;10.08;76.11;99139.59;5099805;28;20048;-69
2021/12/01 10:02:53;;;;;;;3.13;0.80;;;;;;;10.02;75.76;99127.22;5100697;28;20082;-69
2021/12/01 10:05:50;;;;;;;7.18;1.60;;;;;;;10.04;75.65;99141.19;5084515;28;20074;-68
2021/12/01 10:08:19;;;;;;;1.67;1.20;;;;;;;10.03;76.17;99137.69;5086864;28;20055;-69
2021/12/01 10:10:47;;;;;;;2.67;1.60;;;;;;;9.99;76.07;99135.78;5087030;28;20083;-69
2021/12/01 10:13:16;;;;;;;5.75;1.70;;;;;;;10.00;76.57;99148.13;5099709;28;20083;-69
2021/12/01 10:15:45;;;;;;;6.75;1.92;;;;;;;10.00;75.92;99134.72;5100373;28;20078;-65
2021/12/01 10:18:15;;;;;;;4.35;1.40;;;;;;;9.96;75.87;99134.44;5099870;28;20047;-66
2021/12/01 10:20:57;;;;;;;2.88;1.30;;;;;;;10.11;75.75;99136.41;5099574;28;20099;-68
2021/12/01 10:23:25;;;;;;;4.72;1.55;;;;;;;10.23;74.98;99142.41;5100666;28;20056;-68
2021/12/01 10:26:06;;;;;;;2.58;1.45;;;;;;;10.33;74.22;99126.34;5100663;28;20104;-69
2021/12/01 10:28:35;;;;;;;6.00;1.55;;;;;;;10.53;73.39;99136.31;5099794;28;20044;-69
2021/12/01 10:31:09;;;;;;;7.35;2.65;;;;;;;10.68;72.85;99138.25;5093133;28;20059;-68
2021/12/01 10:33:38;;;;;;;5.82;1.48;;;;;;;10.73;72.51;99132.88;5100399;28;20052;-68
2021/12/01 10:36:09;;;;;;;8.75;1.83;;;;;;;10.70;72.36;99136.91;5099994;28;20488;-69
2021/12/01 10:38:40;;;;;;;3.92;1.40;;;;;;;10.54;72.41;99124.50;5082338;28;20052;-69
2021/12/01 10:41:12;;;;;;;13.40;1.52;;;;;;;10.55;72.37;99130.69;5079035;28;20048;-69
2021/12/01 10:43:44;;;;;;;7.78;2.17;;;;;;;10.44;72.63;99130.63;5079641;28;20076;-69
2021/12/01 10:46:15;;;;;;;8.25;1.73;;;;;;;10.36;72.41;99136.53;5079850;28;20056;-69
2021/12/01 10:48:46;;;;;;;7.28;1.30;;;;;;;10.30;72.45;99134.91;5079969;28;20112;-69
2021/12/01 10:51:33;;;;;;;7.32;2.13;;;;;;;10.21;72.38;99128.41;5089686;28;20040;-70
2021/12/01 10:54:00;;;;;;;7.07;1.90;;;;;;;10.11;71.84;99129.16;5085979;28;20044;-69
2021/12/01 10:56:28;;;;;;;8.25;2.80;;;;;;;10.12;72.58;99124.59;5091840;28;20059;-69
2021/12/01 10:58:56;;;;;;;10.05;1.95;;;;;;;10.09;72.78;99130.47;5099560;28;20048;-69
2021/12/01 11:01:26;;;;;;;3.63;1.25;;;;;;;10.05;72.52;99127.50;5099609;28;20383;-69
2021/12/01 11:03:55;;;;;;;6.05;1.40;;;;;;;10.04;72.96;99130.44;5100157;28;20077;-69
2021/12/01 11:06:25;;;;;;;8.32;2.03;;;;;;;10.02;72.67;99144.13;5098799;28;20055;-69
2021/12/01 11:08:57;;;;;;;5.60;1.67;;;;;;;9.96;72.92;99126.38;5099838;28;20492;-69
2021/12/01 11:11:34;;;;;;;5.85;1.70;;;;;;;9.99;72.47;99131.22;5099619;28;20079;-69
2021/12/01 11:14:23;;;;;;;5.80;1.30;;;;;;;9.97;72.19;99143.28;5103142;28;20044;-69
2021/12/01 11:16:51;;;;;;;6.75;2.65;;;;;;;9.96;72.60;99153.22;5102897;28;20066;-69
2021/12/01 11:19:32;;;;;;;4.18;1.42;;;;;;;9.96;72.21;99147.03;5103402;28;20048;-69
2021/12/01 11:22:27;;;;;;;6.85;1.42;;;;;;;9.93;72.51;99145.69;5103500;28;20043;-69
2021/12/01 11:25:20;;;;;;;5.68;1.10;;;;;;;9.92;72.01;99154.00;5103397;28;20062;-69
2021/12/01 11:27:48;;;;;;;4.72;1.20;;;;;;;9.88;71.87;99142.97;5102955;28;20044;-69
2021/12/01 11:30:16;;;;;;;5.78;1.10;;;;;;;9.81;72.32;99141.59;5111415;28;20074;-69
2021/12/01 11:32:54;;;;;;;7.07;1.45;;;;;;;9.87;72.04;99162.00;5091461;28;20155;-69
2021/12/01 11:35:24;;;;;;;6.03;1.95;;;;;;;9.83;71.81;99161.72;5102915;28;20086;-69
2021/12/01 11:37:55;;;;;;;4.80;1.25;;;;;;;9.85;71.80;99166.81;5103165;28;20048;-69
2021/12/01 11:40:23;;;;;;;6.45;0.88;;;;;;;9.84;71.83;99160.66;5103191;28;20185;-69
2021/12/01 11:42:51;;;;;;;3.58;1.02;;;;;;;9.84;71.83;99151.78;5092041;28;20048;-69
2021/12/01 11:45:19;;;;;;;5.30;1.20;;;;;;;9.81;72.24;99169.22;5083056;28;20060;-69
2021/12/01 11:47:48;;;;;;;5.78;1.30;;;;;;;9.81;72.09;99157.69;5082718;28;20048;-69
2021/12/01 11:50:21;;;;;;;6.68;1.88;;;;;;;9.82;72.36;99159.28;5097885;28;20051;-70
2021/12/01 11:53:07;;;;;;;4.22;0.93;;;;;;;9.91;71.79;99155.06;5092222;28;20059;-70
2021/12/01 11:55:56;;;;;;;3.42;1.00;;;;;;;10.08;71.40;99153.03;5082601;28;20048;-71